Dobrodošli na spletni strani vremenske postaje Senovo. Vse informacije so informativnega značaja, saj vremenska postaja ni del državne mreže meteoroloških postaj. AKTUALNIH OBVESTIL NI.


Sneg/Led Od: 23-02-2018 00:00 Do: 23:59 Opozorilo za: Sneg/Led Stopnja: Rumena info button

Pogled proti Armezu več informacij Pogled proti Armezu


Lisca več informacij Lisca


Radar strel več informacij blitzortung!


opozorilo za sneg/led več informacij rain snow radar


Obiščite še:

Template documentation
and downloads

And another site



Weather Underground, zgodovina - Tekstovno

Dnevni povzetek za Januar 30, 2018 Enote:  Metrično    Angleško   Obe
« Predhodni Dan
Naslednji Dan »
Dnevni Tedenski Mesečni Letni Po meri
  Višja: Nižja: Povprečje:
Temperatura: -17.8 °C -18.3 °C -15.8 °C
Točka rosišča: -17.8 °C -19.2 °C -17.2 °C
Vlažnost: Humidity % 57 % 84 %
Hitrost vetra: 0 km/h 0 km/h 2.3 km/h
Sunki vetra: 0 km/h - -
Veter:- - WSW
Zračni tlak: 0 hPa 34567.7 hPa -
Padavine: 7.62 mm    
Historical Graphs
 
 
Tabelarni podarki za Januar 30, 2018
Čas Temperatura Točka rosišča Zračni tlak Veter Hitrost vetra Sunki vetra Vlažnost Intenziteta padavin (urna)
-17.8 °C -17.8 °C 0 hPa Calm     Humidity % 0 mm
00:01 -18.3 °C -19 °C 34635.4 hPa Calm     91 % 0 mm
00:06 -18.2 °C -18.9 °C 34635.4 hPa Calm     91 % 0 mm
00:11 -18.2 °C -18.9 °C 34601.5 hPa Calm     91 % 0 mm
00:16 -18.2 °C -18.9 °C 34601.5 hPa Calm     91 % 0 mm
00:21 -18.3 °C -19 °C 34601.5 hPa Calm     91 % 0 mm
00:23 -18.3 °C -19 °C 34601.5 hPa Calm     91 % 0 mm
00:28 -18.3 °C -19 °C 34601.5 hPa Calm     91 % 0 mm
00:33 -18.3 °C -19 °C 34601.5 hPa Calm     91 % 0 mm
00:38 -18.3 °C -19 °C 34601.5 hPa Calm     91 % 0 mm
00:43 -18.2 °C -18.9 °C 34601.5 hPa West 0.5 km/h 8 km/h 91 % 0 mm
00:48 -18.2 °C -18.8 °C 34601.5 hPa NW 1.8 km/h 8 km/h 92 % 0 mm
00:53 -18.1 °C -18.7 °C 34601.5 hPa NNW 1.8 km/h 9.3 km/h 92 % 0 mm
00:58 -18.1 °C -18.7 °C 34567.7 hPa NNW 1 km/h 9.3 km/h 92 % 0 mm
01:03 -18.1 °C -18.7 °C 34567.7 hPa NNW 1 km/h 5.1 km/h 92 % 0 mm
01:08 -18.1 °C -18.7 °C 34567.7 hPa NNW 0.5 km/h 4.2 km/h 92 % 0 mm
01:13 -18.1 °C -18.7 °C 34567.7 hPa Calm     92 % 0 mm
01:18 -18.1 °C -18.7 °C 34567.7 hPa Calm     92 % 0 mm
01:23 -18.1 °C -18.7 °C 34567.7 hPa Calm     92 % 0 mm
01:28 -18.1 °C -18.7 °C 34567.7 hPa Calm     92 % 0 mm
01:33 -18.2 °C -18.8 °C 34567.7 hPa Calm     92 % 0 mm
01:38 -18.2 °C -18.8 °C 34567.7 hPa Calm     92 % 0 mm
01:43 -18.2 °C -18.8 °C 34567.7 hPa Calm     92 % 0 mm
01:48 -18.3 °C -18.9 °C 34567.7 hPa Calm     92 % 0 mm
01:53 -18.3 °C -18.9 °C 34567.7 hPa Calm     92 % 0 mm
01:58 -18.3 °C -18.9 °C 34601.5 hPa Calm     92 % 0 mm
02:03 -18.3 °C -18.9 °C 34601.5 hPa Calm     92 % 0 mm
02:08 -18.3 °C -18.9 °C 34601.5 hPa Calm     92 % 0 mm
02:13 -18.3 °C -18.8 °C 34601.5 hPa Calm     93 % 0 mm
02:18 -18.3 °C -18.8 °C 34601.5 hPa Calm     93 % 0 mm
02:23 -18.3 °C -18.8 °C 34601.5 hPa Calm     93 % 0 mm
02:28 -18.3 °C -18.8 °C 34601.5 hPa WSW 1.3 km/h 6.9 km/h 93 % 0 mm
02:33 -18.3 °C -18.8 °C 34601.5 hPa WNW 3.4 km/h 6.9 km/h 93 % 0 mm
02:38 -18.2 °C -18.7 °C 34601.5 hPa NNW 4.2 km/h 6.9 km/h 93 % 0 mm
02:43 -18.1 °C -18.7 °C 34635.4 hPa NNW 3.4 km/h 6.9 km/h 93 % 0 mm
02:48 -18.1 °C -18.7 °C 34635.4 hPa NW 1.6 km/h 6.9 km/h 93 % 0 mm
02:53 -18.1 °C -18.6 °C 34635.4 hPa WNW 0.5 km/h 4.2 km/h 93 % 0 mm
02:58 -18.1 °C -18.6 °C 34601.5 hPa WNW 2.3 km/h 6.9 km/h 93 % 0 mm
03:03 -18.1 °C -18.6 °C 34601.5 hPa WNW 2.6 km/h 6.9 km/h 93 % 0 mm
03:08 -18 °C -18.6 °C 34601.5 hPa WNW 2.6 km/h 6.9 km/h 93 % 0 mm
03:13 -17.9 °C -18.4 °C 34601.5 hPa WNW 4.2 km/h 8.9 km/h 94 % 0 mm
03:18 -17.9 °C -18.4 °C 34601.5 hPa South 3.9 km/h 8.9 km/h 94 % 0 mm
03:24 -17.9 °C -18.4 °C 34601.5 hPa WSW 3.4 km/h 8 km/h 94 % 0 mm
03:28 -17.9 °C -18.4 °C 34635.4 hPa WSW 1.6 km/h 7.6 km/h 94 % 0 mm
03:34 -18 °C -18.4 °C 34635.4 hPa WNW 0.8 km/h 6.4 km/h 94 % 0 mm
03:39 -18 °C -18.4 °C 34635.4 hPa NW 0.5 km/h 6.4 km/h 94 % 0 mm
03:44 -18 °C -18.4 °C 34635.4 hPa Calm   2.3 km/h 94 % 0 mm
03:49 -18.1 °C -18.5 °C 34635.4 hPa Calm   5.1 km/h 94 % 0 mm
03:54 -18.1 °C -18.6 °C 34635.4 hPa NW 1 km/h 6.4 km/h 94 % 0 mm
03:59 -18.2 °C -18.7 °C 34601.5 hPa NW 1.8 km/h 6.4 km/h 94 % 0 mm
04:04 -18.2 °C -18.7 °C 34601.5 hPa SSW 1.6 km/h 5.1 km/h 94 % 0 mm
04:08 -18.1 °C -18.6 °C 34601.5 hPa SW 1.8 km/h 5.6 km/h 94 % 0 mm
04:14 -18.1 °C -18.6 °C 34601.5 hPa WSW 1.6 km/h 5.6 km/h 94 % 0 mm
04:18 -18.1 °C -18.6 °C 34601.5 hPa WSW 2.6 km/h 8.9 km/h 94 % 0 mm
04:24 -18.2 °C -18.7 °C 34601.5 hPa SW 2.3 km/h 8.9 km/h 94 % 0 mm
04:28 -18.2 °C -18.7 °C 34601.5 hPa ENE 0.5 km/h 5.6 km/h 94 % 0 mm
04:34 -18.2 °C -18.7 °C 34601.5 hPa West 1.6 km/h 6.9 km/h 94 % 0 mm
04:38 -18.2 °C -18.7 °C 34601.5 hPa West 2.1 km/h 6.9 km/h 94 % 0 mm
04:44 -18.2 °C -18.7 °C 34601.5 hPa NNW 2.3 km/h 8 km/h 94 % 0 mm
04:48 -18.1 °C -18.6 °C 34601.5 hPa NNW 2.9 km/h 8 km/h 94 % 0 mm
04:54 -18.1 °C -18.6 °C 34601.5 hPa NNW 0.8 km/h 6.4 km/h 94 % 0 mm
04:59 -18.1 °C -18.5 °C 34635.4 hPa WSW 0.8 km/h 6.4 km/h 94 % 0 mm
05:04 -18.1 °C -18.5 °C 34635.4 hPa WSW 1.3 km/h 6.4 km/h 94 % 0 mm
05:08 -18.1 °C -18.5 °C 34635.4 hPa SW 1.3 km/h 6.4 km/h 94 % 0 mm
05:14 -18.1 °C -18.6 °C 34635.4 hPa West 1 km/h 5.6 km/h 94 % 0 mm
05:19 -18.1 °C -18.6 °C 34635.4 hPa NNW 2.1 km/h 7.6 km/h 94 % 0 mm
05:23 -18.1 °C -18.5 °C 34635.4 hPa NW 3.1 km/h 7.6 km/h 94 % 0 mm
05:29 -18.1 °C -18.5 °C 34635.4 hPa WNW 2.3 km/h 7.6 km/h 94 % 0 mm
05:33 -18 °C -18.4 °C 34635.4 hPa WSW 4.7 km/h 9.8 km/h 95 % 0 mm
05:39 -17.9 °C -18.3 °C 34635.4 hPa WSW 6 km/h 9.8 km/h 95 % 0 mm
05:44 -17.9 °C -18.3 °C 34635.4 hPa West 3.4 km/h 8.9 km/h 95 % 0 mm
05:49 -17.9 °C -18.3 °C 34635.4 hPa NNW 1 km/h 5.6 km/h 95 % 0 mm
05:53 -17.9 °C -18.3 °C 34635.4 hPa Calm     95 % 0 mm
05:59 -17.9 °C -18.3 °C 34635.4 hPa Calm     95 % 0 mm
06:04 -18 °C -18.4 °C 34635.4 hPa Calm     95 % 0 mm
06:09 -18 °C -18.4 °C 34635.4 hPa Calm     95 % 0 mm
06:14 -18 °C -18.4 °C 34635.4 hPa Calm     95 % 0 mm
06:19 -18 °C -18.4 °C 34635.4 hPa Calm     95 % 0 mm
06:24 -17.9 °C -18.3 °C 34635.4 hPa West 0.5 km/h 6.4 km/h 95 % 0 mm
06:28 -17.9 °C -18.3 °C 34669.3 hPa West 1.8 km/h 6.4 km/h 95 % 0 mm
06:34 -17.9 °C -18.3 °C 34669.3 hPa WNW 2.6 km/h 6.4 km/h 95 % 0 mm
06:39 -18 °C -18.4 °C 34669.3 hPa NNW 1 km/h 6.4 km/h 95 % 0 mm
06:44 -18 °C -18.4 °C 34669.3 hPa Calm     95 % 0 mm
06:49 -17.9 °C -18.3 °C 34669.3 hPa Calm     95 % 0 mm
06:53 -17.9 °C -18.3 °C 34669.3 hPa Calm     95 % 0 mm
06:59 -18 °C -18.4 °C 34703.1 hPa Calm     95 % 0 mm
07:03 -18.1 °C -18.4 °C 34703.1 hPa Calm     95 % 0 mm
07:09 -18.1 °C -18.4 °C 34703.1 hPa Calm     95 % 0 mm
07:14 -18.1 °C -18.4 °C 34703.1 hPa Calm     95 % 0 mm
07:19 -18.1 °C -18.5 °C 34703.1 hPa Calm     95 % 0 mm
07:24 -18.1 °C -18.5 °C 34703.1 hPa NNW 0.3 km/h 3.4 km/h 95 % 0 mm
07:29 -18.2 °C -18.6 °C 34703.1 hPa NNW 0.3 km/h 3.4 km/h 95 % 0 mm
07:34 -18.2 °C -18.6 °C 34703.1 hPa Calm     95 % 0 mm
07:39 -18.2 °C -18.6 °C 34703.1 hPa Calm   3.4 km/h 95 % 0 mm
07:44 -18.2 °C -18.6 °C 34703.1 hPa Calm   3.4 km/h 95 % 0 mm
07:49 -18.2 °C -18.6 °C 34703.1 hPa Calm     95 % 0 mm
07:54 -18.2 °C -18.6 °C 34703.1 hPa Calm     95 % 0 mm
07:59 -18.3 °C -18.7 °C 34703.1 hPa Calm     95 % 0 mm
08:04 -18.2 °C -18.6 °C 34703.1 hPa Calm     95 % 0 mm
08:09 -18.3 °C -18.7 °C 34703.1 hPa Calm     95 % 0 mm
08:14 -18.2 °C -18.6 °C 34703.1 hPa Calm     95 % 0 mm
08:19 -18.2 °C -18.6 °C 34703.1 hPa Calm     95 % 0 mm
08:24 -18.2 °C -18.6 °C 34703.1 hPa Calm     95 % 0 mm
08:29 -18.1 °C -18.4 °C 34703.1 hPa Calm     95 % 0 mm
08:34 -18 °C -18.4 °C 34703.1 hPa Calm     95 % 0 mm
08:39 -17.9 °C -18.2 °C 34703.1 hPa Calm     96 % 0 mm
08:44 -17.8 °C -18.1 °C 34703.1 hPa Calm     96 % 0 mm
08:49 -17.7 °C -18 °C 34703.1 hPa Calm   4.2 km/h 96 % 0 mm
08:54 -17.6 °C -17.9 °C 34703.1 hPa SW 1.8 km/h 6.9 km/h 96 % 0 mm
08:59 -17.4 °C -17.7 °C 34740.4 hPa SW 2.6 km/h 6.9 km/h 96 % 0 mm
09:04 -17.3 °C -17.6 °C 34740.4 hPa SW 0.8 km/h 5.6 km/h 96 % 7.62 mm
09:09 -17.2 °C -17.6 °C 34740.4 hPa Calm     96 % 7.62 mm
09:14 -17.1 °C -17.4 °C 34740.4 hPa Calm     96 % 7.62 mm
09:19 -16.9 °C -17.3 °C 34740.4 hPa South 0.3 km/h 3.4 km/h 96 % 7.62 mm
09:24 -16.8 °C -17.1 °C 34740.4 hPa South 0.3 km/h 3.4 km/h 97 % 7.62 mm
09:29 -16.7 °C -16.9 °C 34774.2 hPa Calm     97 % 7.62 mm
09:34 -16.6 °C -16.9 °C 34774.2 hPa Calm     96 % 7.62 mm
09:39 -16.4 °C -16.6 °C 34774.2 hPa Calm     97 % 7.62 mm
09:44 -16.2 °C -16.4 °C 34774.2 hPa Calm     97 % 7.62 mm
09:49 -16.1 °C -16.3 °C 34774.2 hPa Calm   2.3 km/h 97 % 7.62 mm
09:54 -15.9 °C -16.2 °C 34774.2 hPa SSW 0.3 km/h 3.4 km/h 97 % 7.62 mm
09:59 -15.7 °C -15.9 °C 34774.2 hPa South 0.8 km/h 4.2 km/h 97 % 7.62 mm
10:04 -15.6 °C -15.9 °C 34774.2 hPa SSE 1.3 km/h 5.6 km/h 97 % 0 mm
10:09 -15.4 °C -15.7 °C 34774.2 hPa SSE 0.8 km/h 5.6 km/h 97 % 0 mm
10:14 -15.3 °C -15.6 °C 34774.2 hPa Calm     97 % 0 mm
10:19 -15.2 °C -15.4 °C 34774.2 hPa Calm     97 % 0 mm
10:24 -15.1 °C -15.3 °C 34774.2 hPa SE 0.3 km/h 8 km/h 97 % 0 mm
10:29 -14.8 °C -15.1 °C 34740.4 hPa SE 3.9 km/h 9.8 km/h 97 % 0 mm
10:34 -14.6 °C -14.8 °C 34740.4 hPa SE 7.2 km/h 12.2 km/h 97 % 0 mm
10:39 -14.3 °C -14.6 °C 34740.4 hPa SE 8.2 km/h 12.2 km/h 97 % 0 mm
10:44 -14.1 °C -14.3 °C 34774.2 hPa South 9.3 km/h 15 km/h 97 % 0 mm
10:49 -13.8 °C -14 °C 34774.2 hPa South 9.7 km/h 16.3 km/h 97 % 0 mm
10:54 -13.6 °C -13.8 °C 34774.2 hPa SSW 9.8 km/h 16.3 km/h 97 % 0 mm
10:59 -13.3 °C -13.6 °C 34774.2 hPa SSW 9.8 km/h 15.6 km/h 97 % 0 mm
11:04 -13.2 °C -13.4 °C 34774.2 hPa SSW 9.3 km/h 14.5 km/h 97 % 0 mm
11:09 -13.1 °C -13.3 °C 34774.2 hPa SSW 8.5 km/h 14.5 km/h 97 % 0 mm
11:14 -12.9 °C -13.2 °C 34740.4 hPa SSW 8 km/h 14.5 km/h 97 % 0 mm
11:19 -12.8 °C -13.1 °C 34740.4 hPa SSW 9 km/h 16.9 km/h 97 % 0 mm
11:24 -12.7 °C -13 °C 34740.4 hPa SSW 10.3 km/h 16.9 km/h 96 % 0 mm
11:29 -12.3 °C -12.6 °C 34774.2 hPa SSW 9.3 km/h 14.5 km/h 97 % 0 mm
11:34 -12.2 °C -12.5 °C 34774.2 hPa SSW 8.5 km/h 14 km/h 96 % 0 mm
11:39 -12 °C -12.3 °C 34774.2 hPa SSW 8.9 km/h 15.6 km/h 96 % 0 mm
11:44 -11.8 °C -12.2 °C 34740.4 hPa SSW 10.3 km/h 16.9 km/h 96 % 0 mm
11:49 -11.7 °C -12.1 °C 34740.4 hPa SSW 11.1 km/h 16.9 km/h 96 % 0 mm
11:54 -11.7 °C -12.1 °C 34740.4 hPa SW 10.6 km/h 15.6 km/h 95 % 0 mm
11:59 -11.5 °C -12 °C 34740.4 hPa SW 9.3 km/h 15 km/h 94 % 0 mm
12:04 -11.3 °C -11.9 °C 34740.4 hPa SSW 9 km/h 14.5 km/h 93 % 0 mm
12:09 -11.3 °C -11.9 °C 34740.4 hPa SSW 11.9 km/h 20.3 km/h 93 % 0 mm
12:14 -11.2 °C -11.9 °C 34703.1 hPa SSW 13.5 km/h 20.3 km/h 91 % 0 mm
12:19 -11.1 °C -12.1 °C 34703.1 hPa SSW 11.9 km/h 17.4 km/h 89 % 0 mm
12:24 -10.9 °C -12.1 °C 34703.1 hPa SSW 10.9 km/h 16.3 km/h 87 % 0 mm
12:29 -10.8 °C -12.2 °C 34703.1 hPa SSW 9.8 km/h 16.3 km/h 85 % 0 mm
12:34 -10.8 °C -12.3 °C 34703.1 hPa SW 8.2 km/h 14 km/h 84 % 0 mm
12:39 -10.7 °C -12.4 °C 34703.1 hPa SSW 6.9 km/h 11.6 km/h 82 % 0 mm
12:44 -10.6 °C -12.4 °C 34740.4 hPa SSW 7.2 km/h 12.7 km/h 81 % 0 mm
12:49 -10.4 °C -12.4 °C 34740.4 hPa SSW 8 km/h 12.7 km/h 79 % 0 mm
12:54 -10.4 °C -12.6 °C 34740.4 hPa SSW 8.2 km/h 14.5 km/h 77 % 0 mm
12:59 -10.3 °C -12.7 °C 34703.1 hPa SSW 9 km/h 19.2 km/h 75 % 0 mm
13:04 -10.3 °C -12.9 °C 34703.1 hPa SSW 10.1 km/h 19.2 km/h 74 % 0 mm
13:09 -10.3 °C -12.9 °C 34703.1 hPa SSW 10.1 km/h 15.6 km/h 73 % 0 mm
13:14 -10.3 °C -13.2 °C 34669.3 hPa SSW 9.3 km/h 15.6 km/h 71 % 0 mm
13:19 -10.3 °C -13.3 °C 34669.3 hPa SSW 8.9 km/h 15.6 km/h 70 % 0 mm
13:24 -10.3 °C -13.6 °C 34669.3 hPa South 8 km/h 15.6 km/h 68 % 0 mm
13:29 -10.3 °C -13.6 °C 34740.4 hPa SSW 6.3 km/h 14 km/h 67 % 0 mm
13:34 -10.3 °C -13.7 °C 34740.4 hPa SW 5.1 km/h 12.7 km/h 66 % 0 mm
13:39 -10.3 °C -13.7 °C 34740.4 hPa SSW 6.4 km/h 12.7 km/h 66 % 0 mm
13:44 -10.3 °C -13.9 °C 34703.1 hPa SSW 5.5 km/h 12.7 km/h 65 % 0 mm
13:49 -10.3 °C -14.1 °C 34703.1 hPa SSW 3.7 km/h 7.6 km/h 64 % 0 mm
13:54 -10.3 °C -14 °C 34703.1 hPa South 3.9 km/h 7.6 km/h 64 % 0 mm
13:59 -10.3 °C -14.1 °C 34703.1 hPa SSW 2.6 km/h 8 km/h 63 % 0 mm
14:04 -10.3 °C -14.1 °C 34703.1 hPa WSW 5.1 km/h 12.7 km/h 63 % 0 mm
14:09 -10.3 °C -14.3 °C 34703.1 hPa SW 7.7 km/h 12.7 km/h 62 % 0 mm
14:14 -10.2 °C -14.2 °C 34703.1 hPa South 5.6 km/h 10.3 km/h 62 % 0 mm
14:19 -10.3 °C -14.4 °C 34703.1 hPa SE 5.1 km/h 11.1 km/h 61 % 0 mm
14:24 -10.3 °C -14.6 °C 34703.1 hPa ESE 6.4 km/h 14 km/h 60 % 0 mm
14:29 -10.3 °C -14.7 °C 34669.3 hPa SE 6 km/h 14 km/h 59 % 0 mm
14:34 -10.3 °C -14.7 °C 34669.3 hPa SSE 4.3 km/h 9.8 km/h 59 % 0 mm
14:35 -10.2 °C -14.6 °C 34669.3 hPa SSE 4.7 km/h 10.3 km/h 59 % 0 mm
14:40 -10.3 °C -14.7 °C 34703.1 hPa SSE 6.3 km/h 11.1 km/h 59 % 0 mm
14:45 -10.3 °C -14.7 °C 34703.1 hPa SSE 8.2 km/h 11.1 km/h 59 % 0 mm
14:50 -10.3 °C -14.7 °C 34703.1 hPa SSE 8.2 km/h 11.1 km/h 59 % 0 mm
14:55 -10.3 °C -14.7 °C 34703.1 hPa SE 7.2 km/h 11.1 km/h 59 % 0 mm
15:00 -10.2 °C -14.6 °C 34703.1 hPa SSE 6 km/h 9.8 km/h 59 % 0 mm
15:05 -10.2 °C -14.6 °C 34703.1 hPa South 4.2 km/h 9.8 km/h 59 % 0 mm
15:10 -10.2 °C -14.7 °C 34703.1 hPa South 3.4 km/h 6.4 km/h 58 % 0 mm
15:15 -10.2 °C -14.7 °C 34703.1 hPa South 3.1 km/h 6.9 km/h 58 % 0 mm
15:20 -10.2 °C -14.7 °C 34703.1 hPa South 2.6 km/h 6.9 km/h 58 % 0 mm
15:25 -10.2 °C -14.7 °C 34669.3 hPa South 3.7 km/h 6.4 km/h 58 % 0 mm
15:30 -10.3 °C -14.8 °C 34669.3 hPa SSW 3.7 km/h 6.4 km/h 58 % 0 mm
15:36 -10.6 °C -15.1 °C 34669.3 hPa South 2.9 km/h 6.4 km/h 58 % 0 mm
15:41 -10.9 °C -15.4 °C 34669.3 hPa SSW 2.9 km/h 6.9 km/h 58 % 0 mm
15:46 -11.1 °C -15.7 °C 34669.3 hPa SSW 3.4 km/h 6.9 km/h 57 % 0 mm
15:51 -11.4 °C -16 °C 34669.3 hPa SSW 3.1 km/h 6.4 km/h 57 % 0 mm
15:56 -11.8 °C -16.2 °C 34669.3 hPa WNW 1.6 km/h 6.4 km/h 58 % 0 mm
16:01 -12 °C -16.4 °C 34669.3 hPa NW 1 km/h 6.4 km/h 58 % 0 mm
16:06 -12.3 °C -16.5 °C 34669.3 hPa West 2.1 km/h 6.4 km/h 59 % 0 mm
16:11 -12.6 °C -16.8 °C 34703.1 hPa WNW 3.4 km/h 8 km/h 59 % 0 mm
16:16 -12.7 °C -16.8 °C 34703.1 hPa NW 3.7 km/h 8.9 km/h 60 % 0 mm
16:21 -12.9 °C -16.8 °C 34703.1 hPa WNW 1.8 km/h 8.9 km/h 61 % 0 mm
16:26 -13.1 °C -16.9 °C 34669.3 hPa NW 0.8 km/h 6.4 km/h 62 % 0 mm
16:31 -13.2 °C -17 °C 34669.3 hPa WNW 2.3 km/h 6.4 km/h 62 % 0 mm
16:36 -13.3 °C -17 °C 34669.3 hPa WNW 2.6 km/h 6.4 km/h 63 % 0 mm
16:41 -13.5 °C -17.1 °C 34669.3 hPa WNW 1 km/h 6.4 km/h 64 % 0 mm
16:46 -13.6 °C -17.1 °C 34669.3 hPa West 0.8 km/h 6.4 km/h 65 % 0 mm
16:51 -13.8 °C -17.1 °C 34669.3 hPa WNW 1.6 km/h 6.4 km/h 66 % 0 mm
16:56 -13.9 °C -17.2 °C 34703.1 hPa NW 2.3 km/h 8 km/h 66 % 0 mm
17:01 -14 °C -17.2 °C 34703.1 hPa NW 2.1 km/h 8 km/h 67 % 0 mm
17:06 -14.1 °C -17.2 °C 34703.1 hPa NNW 0.8 km/h 4.2 km/h 68 % 0 mm
17:11 -14.2 °C -17.3 °C 34703.1 hPa NW 1 km/h 8 km/h 68 % 0 mm
17:16 -14.3 °C -17.3 °C 34703.1 hPa NW 3.4 km/h 9.3 km/h 69 % 0 mm
17:21 -14.4 °C -17.3 °C 34703.1 hPa WNW 2.9 km/h 9.3 km/h 69 % 0 mm
17:26 -14.6 °C -17.4 °C 34669.3 hPa WNW 0.8 km/h 4.2 km/h 70 % 0 mm
17:31 -14.7 °C -17.3 °C 34669.3 hPa NW 0.3 km/h 6.9 km/h 71 % 0 mm
17:36 -14.8 °C -17.4 °C 34669.3 hPa NW 2.1 km/h 6.9 km/h 71 % 0 mm
17:41 -14.8 °C -17.6 °C 34703.1 hPa WNW 4.2 km/h 8 km/h 71 % 0 mm
17:46 -14.9 °C -17.6 °C 34703.1 hPa WNW 2.6 km/h 8 km/h 72 % 0 mm
17:51 -15.1 °C -17.6 °C 34703.1 hPa WNW 1.6 km/h 5.6 km/h 72 % 0 mm
17:56 -15.2 °C -17.6 °C 34703.1 hPa WNW 1 km/h 5.6 km/h 73 % 0 mm
18:01 -15.3 °C -17.7 °C 34703.1 hPa Calm     73 % 0 mm
18:06 -15.3 °C -17.8 °C 34703.1 hPa Calm   7.6 km/h 73 % 0 mm
18:11 -15.4 °C -17.7 °C 34703.1 hPa WNW 1 km/h 7.6 km/h 74 % 0 mm
18:16 -15.6 °C -17.9 °C 34703.1 hPa NW 0.8 km/h 6.4 km/h 74 % 0 mm
18:21 -15.7 °C -17.9 °C 34703.1 hPa Calm   2.9 km/h 75 % 0 mm
18:26 -15.7 °C -17.9 °C 34703.1 hPa Calm     75 % 0 mm
18:31 -15.8 °C -18 °C 34703.1 hPa Calm     75 % 0 mm
18:36 -15.9 °C -18.1 °C 34703.1 hPa Calm     75 % 0 mm
18:41 -15.9 °C -18.2 °C 34703.1 hPa Calm     75 % 0 mm
18:46 -16 °C -18.1 °C 34703.1 hPa Calm     76 % 0 mm
18:51 -16.1 °C -18.2 °C 34703.1 hPa Calm     76 % 0 mm
18:57 -16.1 °C -18.2 °C 34703.1 hPa Calm     76 % 0 mm
19:02 -16.2 °C -18.2 °C 34703.1 hPa Calm     77 % 0 mm
19:07 -16.2 °C -18.2 °C 34703.1 hPa Calm     77 % 0 mm
19:12 -16.3 °C -18.3 °C 34703.1 hPa Calm     77 % 0 mm
19:17 -16.3 °C -18.4 °C 34703.1 hPa Calm     77 % 0 mm
19:22 -16.4 °C -18.4 °C 34703.1 hPa Calm     77 % 0 mm
19:27 -16.4 °C -18.4 °C 34669.3 hPa Calm     78 % 0 mm
19:32 -16.5 °C -18.4 °C 34669.3 hPa Calm     78 % 0 mm
19:37 -16.6 °C -18.4 °C 34669.3 hPa Calm     78 % 0 mm
19:42 -16.6 °C -18.5 °C 34669.3 hPa Calm     78 % 0 mm
19:47 -16.7 °C -18.6 °C 34669.3 hPa Calm     78 % 0 mm
19:52 -16.7 °C -18.6 °C 34669.3 hPa Calm     78 % 0 mm
19:57 -16.7 °C -18.5 °C 34669.3 hPa NW 0.8 km/h 5.1 km/h 79 % 0 mm
20:02 -16.8 °C -18.6 °C 34669.3 hPa NW 2.3 km/h 6.4 km/h 79 % 0 mm
20:07 -16.8 °C -18.7 °C 34669.3 hPa WNW 2.6 km/h 6.4 km/h 79 % 0 mm
20:12 -16.8 °C -18.7 °C 34703.1 hPa West 1 km/h 5.6 km/h 79 % 0 mm
20:17 -16.8 °C -18.7 °C 34703.1 hPa West 0.3 km/h 3.4 km/h 79 % 0 mm
20:22 -16.8 °C -18.6 °C 34703.1 hPa NW 0.3 km/h 6.4 km/h 80 % 0 mm
20:27 -16.9 °C -18.6 °C 34703.1 hPa NW 0.8 km/h 6.4 km/h 80 % 0 mm
20:32 -16.9 °C -18.6 °C 34703.1 hPa NW 0.8 km/h 5.6 km/h 80 % 0 mm
20:37 -16.9 °C -18.7 °C 34703.1 hPa NW 0.8 km/h 5.6 km/h 80 % 0 mm
20:42 -16.9 °C -18.7 °C 34703.1 hPa NW 0.5 km/h 5.1 km/h 80 % 0 mm
20:47 -16.9 °C -18.6 °C 34703.1 hPa Calm     81 % 0 mm
20:52 -17 °C -18.6 °C 34703.1 hPa NW 0.3 km/h 3.4 km/h 81 % 0 mm
20:57 -17 °C -18.6 °C 34703.1 hPa NW 0.3 km/h 3.4 km/h 81 % 0 mm
21:02 -17 °C -18.6 °C 34703.1 hPa Calm     81 % 0 mm
21:07 -17.1 °C -18.6 °C 34703.1 hPa NW 0.5 km/h 5.1 km/h 82 % 0 mm
21:12 -17.1 °C -18.6 °C 34703.1 hPa NW 2.3 km/h 6.9 km/h 82 % 0 mm
21:17 -17.1 °C -18.6 °C 34703.1 hPa NW 1.6 km/h 6.9 km/h 82 % 0 mm
21:22 -17.1 °C -18.7 °C 34703.1 hPa Calm   5.6 km/h 82 % 0 mm
21:27 -17.1 °C -18.6 °C 34703.1 hPa Calm     83 % 0 mm
21:32 -17.1 °C -18.6 °C 34703.1 hPa Calm     83 % 0 mm
21:37 -17.2 °C -18.6 °C 34703.1 hPa Calm     83 % 0 mm
21:42 -17.2 °C -18.6 °C 34703.1 hPa Calm     83 % 0 mm
21:47 -17.2 °C -18.7 °C 34703.1 hPa Calm     83 % 0 mm
21:52 -17.3 °C -18.6 °C 34703.1 hPa Calm     84 % 0 mm
21:58 -17.3 °C -18.6 °C 34703.1 hPa Calm     84 % 0 mm
22:03 -17.3 °C -18.7 °C 34703.1 hPa Calm     84 % 0 mm
22:08 -17.4 °C -18.7 °C 34703.1 hPa Calm     84 % 0 mm
22:13 -17.4 °C -18.8 °C 34703.1 hPa Calm     84 % 0 mm
22:18 -17.4 °C -18.8 °C 34703.1 hPa Calm     84 % 0 mm
22:23 -17.4 °C -18.8 °C 34703.1 hPa Calm     84 % 0 mm
22:28 -17.5 °C -18.7 °C 34703.1 hPa Calm     85 % 0 mm
22:33 -17.6 °C -18.8 °C 34703.1 hPa Calm     85 % 0 mm
22:38 -17.6 °C -18.8 °C 34703.1 hPa Calm     85 % 0 mm
22:43 -17.6 °C -18.8 °C 34703.1 hPa Calm     85 % 0 mm
22:48 -17.7 °C -18.9 °C 34703.1 hPa Calm     85 % 0 mm
22:53 -17.7 °C -18.9 °C 34703.1 hPa Calm     85 % 0 mm
22:58 -17.7 °C -18.9 °C 34703.1 hPa Calm     85 % 0 mm
23:03 -17.7 °C -18.9 °C 34703.1 hPa Calm     85 % 0 mm
23:08 -17.8 °C -19 °C 34703.1 hPa Calm     85 % 0 mm
23:13 -17.8 °C -19 °C 34669.3 hPa Calm     86 % 0 mm
23:18 -17.8 °C -19 °C 34669.3 hPa Calm     86 % 0 mm
23:23 -17.8 °C -19 °C 34669.3 hPa Calm     86 % 0 mm
23:28 -17.9 °C -19.1 °C 34669.3 hPa Calm     86 % 0 mm
23:33 -17.9 °C -19.1 °C 34669.3 hPa Calm     86 % 0 mm
23:38 -17.9 °C -19.1 °C 34669.3 hPa Calm     86 % 0 mm
23:43 -17.9 °C -19.1 °C 34740.4 hPa Calm     86 % 0 mm
23:48 -18 °C -19.1 °C 34740.4 hPa Calm     86 % 0 mm
23:53 -18 °C -19.1 °C 34740.4 hPa Calm     86 % 0 mm
23:58 -18.1 °C -19.2 °C 34740.4 hPa Calm     86 % 0 mm
Vremenska postaja Senovo
Podatki zbrani iz Weather Underground - 3 mb

Script developed by  Jim McMurry - jmcmurry@mwt.net Adapted for the template by  Wim van der Kuil - Leuven-Template.eu

Vremenski podatki so objavljeni na:

European Weather Network

WeatherCloud

Weather Underground

AWEKAS

HAMweather, WeatherForYou, PWS Weather

MapView

Geostik

Slovenia weather network

Oprema, ki se uporablja:

Vremenski program
Cumulus

Vremenski server
Asus

Cumulus

Asus